sensor_id;sensor_type;location;lat;lon;timestamp;pressure;altitude;pressure_sealevel;temperature;humidity
51452;BME280;37521;52.020;-1.740;2023-09-08T00:00:29;99948.69;;;15.11;100.00
51452;BME280;37521;52.020;-1.740;2023-09-08T00:02:57;99946.13;;;15.09;100.00
51452;BME280;37521;52.020;-1.740;2023-09-08T00:05:25;99951.13;;;15.01;100.00
51452;BME280;37521;52.020;-1.740;2023-09-08T00:07:54;99957.03;;;14.92;100.00
51452;BME280;37521;52.020;-1.740;2023-09-08T00:10:22;99955.75;;;14.85;100.00
51452;BME280;37521;52.020;-1.740;2023-09-08T00:12:51;99957.63;;;14.83;100.00
51452;BME280;37521;52.020;-1.740;2023-09-08T00:15:21;99952.31;;;14.83;100.00
51452;BME280;37521;52.020;-1.740;2023-09-08T00:17:49;99954.84;;;14.84;100.00
51452;BME280;37521;52.020;-1.740;2023-09-08T00:20:19;99946.81;;;14.86;100.00
51452;BME280;37521;52.020;-1.740;2023-09-08T00:22:47;99952.13;;;14.86;100.00
51452;BME280;37521;52.020;-1.740;2023-09-08T00:25:16;99956.91;;;14.66;100.00
51452;BME280;37521;52.020;-1.740;2023-09-08T00:27:44;99950.28;;;14.59;100.00
51452;BME280;37521;52.020;-1.740;2023-09-08T00:30:13;99949.44;;;14.59;100.00
51452;BME280;37521;52.020;-1.740;2023-09-08T00:32:43;99956.44;;;14.60;100.00
51452;BME280;37521;52.020;-1.740;2023-09-08T00:35:11;99947.41;;;14.62;100.00
51452;BME280;37521;52.020;-1.740;2023-09-08T00:37:43;99959.69;;;14.65;100.00
51452;BME280;37521;52.020;-1.740;2023-09-08T00:40:12;99948.00;;;14.67;100.00
51452;BME280;37521;52.020;-1.740;2023-09-08T00:42:40;99951.59;;;14.66;100.00
51452;BME280;37521;52.020;-1.740;2023-09-08T00:45:09;99946.69;;;14.60;100.00
51452;BME280;37521;52.020;-1.740;2023-09-08T00:47:38;99947.75;;;14.58;100.00
51452;BME280;37521;52.020;-1.740;2023-09-08T00:50:08;99945.16;;;14.56;100.00
51452;BME280;37521;52.020;-1.740;2023-09-08T00:52:37;99941.66;;;14.56;100.00
51452;BME280;37521;52.020;-1.740;2023-09-08T00:55:06;99941.75;;;14.54;100.00
51452;BME280;37521;52.020;-1.740;2023-09-08T00:57:35;99948.97;;;14.52;100.00
51452;BME280;37521;52.020;-1.740;2023-09-08T01:00:05;99940.44;;;14.47;100.00
51452;BME280;37521;52.020;-1.740;2023-09-08T01:02:33;99937.00;;;14.45;100.00
51452;BME280;37521;52.020;-1.740;2023-09-08T01:05:04;99939.25;;;14.37;100.00
51452;BME280;37521;52.020;-1.740;2023-09-08T01:07:34;99934.53;;;14.28;100.00
51452;BME280;37521;52.020;-1.740;2023-09-08T01:10:03;99943.34;;;14.28;100.00
51452;BME280;37521;52.020;-1.740;2023-09-08T01:12:33;99939.19;;;14.24;100.00
51452;BME280;37521;52.020;-1.740;2023-09-08T01:15:03;99929.50;;;14.23;100.00
51452;BME280;37521;52.020;-1.740;2023-09-08T01:17:35;99925.81;;;14.26;100.00
51452;BME280;37521;52.020;-1.740;2023-09-08T01:20:08;99922.84;;;14.30;100.00
51452;BME280;37521;52.020;-1.740;2023-09-08T01:22:55;99929.59;;;14.36;100.00
51452;BME280;37521;52.020;-1.740;2023-09-08T01:25:28;99923.31;;;14.37;100.00
51452;BME280;37521;52.020;-1.740;2023-09-08T01:28:00;99919.81;;;14.36;100.00
51452;BME280;37521;52.020;-1.740;2023-09-08T01:30:29;99921.16;;;14.29;100.00
51452;BME280;37521;52.020;-1.740;2023-09-08T01:33:00;99911.50;;;14.28;100.00
51452;BME280;37521;52.020;-1.740;2023-09-08T01:35:29;99915.19;;;14.26;100.00
51452;BME280;37521;52.020;-1.740;2023-09-08T01:37:59;99914.53;;;14.22;100.00
51452;BME280;37521;52.020;-1.740;2023-09-08T01:40:29;99913.03;;;14.18;100.00
51452;BME280;37521;52.020;-1.740;2023-09-08T01:42:57;99913.31;;;14.13;100.00
51452;BME280;37521;52.020;-1.740;2023-09-08T01:45:26;99916.91;;;14.12;100.00
51452;BME280;37521;52.020;-1.740;2023-09-08T01:47:54;99918.06;;;14.08;100.00
51452;BME280;37521;52.020;-1.740;2023-09-08T01:50:23;99909.63;;;14.02;100.00
51452;BME280;37521;52.020;-1.740;2023-09-08T01:52:51;99916.72;;;14.01;100.00
51452;BME280;37521;52.020;-1.740;2023-09-08T01:55:21;99917.41;;;14.05;100.00
51452;BME280;37521;52.020;-1.740;2023-09-08T01:57:51;99914.81;;;14.03;100.00
51452;BME280;37521;52.020;-1.740;2023-09-08T02:00:20;99925.34;;;13.90;100.00
51452;BME280;37521;52.020;-1.740;2023-09-08T02:02:48;99922.03;;;13.87;100.00
51452;BME280;37521;52.020;-1.740;2023-09-08T02:05:17;99922.03;;;13.87;100.00
51452;BME280;37521;52.020;-1.740;2023-09-08T02:07:45;99919.75;;;13.81;100.00
51452;BME280;37521;52.020;-1.740;2023-09-08T02:10:14;99933.28;;;13.76;100.00
51452;BME280;37521;52.020;-1.740;2023-09-08T02:12:45;99928.19;;;13.73;100.00
51452;BME280;37521;52.020;-1.740;2023-09-08T02:15:15;99935.94;;;13.76;100.00
51452;BME280;37521;52.020;-1.740;2023-09-08T02:17:44;99933.22;;;13.78;100.00
51452;BME280;37521;52.020;-1.740;2023-09-08T02:20:12;99933.28;;;13.76;100.00
51452;BME280;37521;52.020;-1.740;2023-09-08T02:22:41;99924.69;;;13.73;100.00
51452;BME280;37521;52.020;-1.740;2023-09-08T02:25:09;99921.19;;;13.72;100.00
51452;BME280;37521;52.020;-1.740;2023-09-08T02:27:39;99930.84;;;13.73;100.00
51452;BME280;37521;52.020;-1.740;2023-09-08T02:30:08;99921.81;;;13.76;100.00
51452;BME280;37521;52.020;-1.740;2023-09-08T02:32:38;99920.69;;;13.80;100.00
51452;BME280;37521;52.020;-1.740;2023-09-08T02:35:13;99927.34;;;13.87;100.00
51452;BME280;37521;52.020;-1.740;2023-09-08T02:37:42;99924.09;;;13.96;100.00
51452;BME280;37521;52.020;-1.740;2023-09-08T02:40:11;99920.50;;;13.97;100.00
51452;BME280;37521;52.020;-1.740;2023-09-08T02:42:39;99928.78;;;13.93;100.00
51452;BME280;37521;52.020;-1.740;2023-09-08T02:45:09;99927.34;;;13.87;100.00
51452;BME280;37521;52.020;-1.740;2023-09-08T02:47:39;99920.59;;;13.81;100.00
51452;BME280;37521;52.020;-1.740;2023-09-08T02:50:09;99934.94;;;13.79;100.00
51452;BME280;37521;52.020;-1.740;2023-09-08T02:52:37;99921.81;;;13.76;100.00
51452;BME280;37521;52.020;-1.740;2023-09-08T02:55:06;99927.13;;;13.76;100.00
51452;BME280;37521;52.020;-1.740;2023-09-08T02:57:35;99914.16;;;13.71;100.00
51452;BME280;37521;52.020;-1.740;2023-09-08T03:00:04;99923.81;;;13.72;100.00
51452;BME280;37521;52.020;-1.740;2023-09-08T03:02:33;99929.03;;;13.74;100.00
51452;BME280;37521;52.020;-1.740;2023-09-08T03:05:04;99922.88;;;13.73;100.00
51452;BME280;37521;52.020;-1.740;2023-09-08T03:07:35;99933.66;;;13.70;100.00
51452;BME280;37521;52.020;-1.740;2023-09-08T03:10:05;99927.88;;;13.63;100.00
51452;BME280;37521;52.020;-1.740;2023-09-08T03:12:35;99932.63;;;13.58;100.00
51452;BME280;37521;52.020;-1.740;2023-09-08T03:15:06;99928.63;;;13.51;100.00
51452;BME280;37521;52.020;-1.740;2023-09-08T03:17:35;99922.47;;;13.51;100.00
51452;BME280;37521;52.020;-1.740;2023-09-08T03:20:06;99920.47;;;13.54;100.00
51452;BME280;37521;52.020;-1.740;2023-09-08T03:22:35;99915.91;;;13.56;100.00
51452;BME280;37521;52.020;-1.740;2023-09-08T03:25:04;99923.13;;;13.54;100.00
51452;BME280;37521;52.020;-1.740;2023-09-08T03:27:33;99928.63;;;13.51;100.00
51452;BME280;37521;52.020;-1.740;2023-09-08T03:30:02;99913.47;;;13.53;100.00
51452;BME280;37521;52.020;-1.740;2023-09-08T03:32:31;99919.34;;;13.58;100.00
51452;BME280;37521;52.020;-1.740;2023-09-08T03:35:00;99915.56;;;13.62;100.00
51452;BME280;37521;52.020;-1.740;2023-09-08T03:37:32;99923.91;;;13.71;100.00
51452;BME280;37521;52.020;-1.740;2023-09-08T03:40:01;99918.22;;;13.77;100.00
51452;BME280;37521;52.020;-1.740;2023-09-08T03:42:32;99914.16;;;13.71;100.00
51452;BME280;37521;52.020;-1.740;2023-09-08T03:45:02;99911.94;;;13.63;100.00
51452;BME280;37521;52.020;-1.740;2023-09-08T03:47:32;99925.41;;;13.60;100.00
51452;BME280;37521;52.020;-1.740;2023-09-08T03:50:00;99922.75;;;13.60;100.00
51452;BME280;37521;52.020;-1.740;2023-09-08T03:52:29;99926.38;;;13.59;100.00
51452;BME280;37521;52.020;-1.740;2023-09-08T03:54:59;99924.47;;;13.61;100.00
51452;BME280;37521;52.020;-1.740;2023-09-08T03:57:28;99919.00;;;13.65;100.00
51452;BME280;37521;52.020;-1.740;2023-09-08T03:59:56;99922.56;;;13.63;100.00
51452;BME280;37521;52.020;-1.740;2023-09-08T04:02:25;99921.06;;;13.59;100.00
51452;BME280;37521;52.020;-1.740;2023-09-08T04:04:54;99928.22;;;13.57;100.00
51452;BME280;37521;52.020;-1.740;2023-09-08T04:07:23;99939.53;;;13.61;100.00
51452;BME280;37521;52.020;-1.740;2023-09-08T04:09:53;99926.16;;;13.62;100.00
51452;BME280;37521;52.020;-1.740;2023-09-08T04:12:23;99935.06;;;13.61;100.00
51452;BME280;37521;52.020;-1.740;2023-09-08T04:14:51;99931.47;;;13.62;100.00
51452;BME280;37521;52.020;-1.740;2023-09-08T04:17:20;99933.38;;;13.60;100.00
51452;BME280;37521;52.020;-1.740;2023-09-08T04:19:49;99938.56;;;13.62;100.00
51452;BME280;37521;52.020;-1.740;2023-09-08T04:22:17;99942.88;;;13.65;100.00
51452;BME280;37521;52.020;-1.740;2023-09-08T04:24:45;99934.03;;;13.64;100.00
51452;BME280;37521;52.020;-1.740;2023-09-08T04:27:14;99933.84;;;13.67;100.00
51452;BME280;37521;52.020;-1.740;2023-09-08T04:29:44;99931.19;;;13.67;100.00
51452;BME280;37521;52.020;-1.740;2023-09-08T04:32:13;99928.06;;;13.60;100.00
51452;BME280;37521;52.020;-1.740;2023-09-08T04:34:42;99936.59;;;13.51;100.00
51452;BME280;37521;52.020;-1.740;2023-09-08T04:37:10;99933.25;;;13.48;100.00
51452;BME280;37521;52.020;-1.740;2023-09-08T04:39:39;99935.81;;;13.49;100.00
51452;BME280;37521;52.020;-1.740;2023-09-08T04:42:07;99937.69;;;13.47;100.00
51452;BME280;37521;52.020;-1.740;2023-09-08T04:44:36;99935.25;;;13.44;100.00
51452;BME280;37521;52.020;-1.740;2023-09-08T04:47:07;99938.06;;;13.41;100.00
51452;BME280;37521;52.020;-1.740;2023-09-08T04:49:35;99936.25;;;13.42;100.00
51452;BME280;37521;52.020;-1.740;2023-09-08T04:52:05;99941.75;;;13.39;100.00
51452;BME280;37521;52.020;-1.740;2023-09-08T04:54:34;99935.50;;;13.40;100.00
51452;BME280;37521;52.020;-1.740;2023-09-08T04:57:03;99942.41;;;13.42;100.00
51452;BME280;37521;52.020;-1.740;2023-09-08T04:59:49;99940.63;;;13.43;100.00
51452;BME280;37521;52.020;-1.740;2023-09-08T05:02:19;99943.38;;;13.41;100.00
51452;BME280;37521;52.020;-1.740;2023-09-08T05:04:48;99941.56;;;13.42;100.00
51452;BME280;37521;52.020;-1.740;2023-09-08T05:07:16;99951.06;;;13.46;100.00
51452;BME280;37521;52.020;-1.740;2023-09-08T05:09:47;99957.97;;;13.48;100.00
51452;BME280;37521;52.020;-1.740;2023-09-08T05:12:16;99950.69;;;13.52;100.00
51452;BME280;37521;52.020;-1.740;2023-09-08T05:14:44;99954.75;;;13.57;100.00
51452;BME280;37521;52.020;-1.740;2023-09-08T05:17:13;99949.66;;;13.54;100.00
51452;BME280;37521;52.020;-1.740;2023-09-08T05:19:43;99947.63;;;13.44;100.00
51452;BME280;37521;52.020;-1.740;2023-09-08T05:22:12;99952.44;;;13.37;100.00
51452;BME280;37521;52.020;-1.740;2023-09-08T05:24:41;99951.94;;;13.30;100.00
51452;BME280;37521;52.020;-1.740;2023-09-08T05:27:10;99952.97;;;13.28;100.00
51452;BME280;37521;52.020;-1.740;2023-09-08T05:29:38;99947.53;;;13.31;100.00
51452;BME280;37521;52.020;-1.740;2023-09-08T05:32:07;99943.91;;;13.32;100.00
51452;BME280;37521;52.020;-1.740;2023-09-08T05:34:37;99940.13;;;13.36;100.00
51452;BME280;37521;52.020;-1.740;2023-09-08T05:37:07;99948.66;;;13.41;100.00
51452;BME280;37521;52.020;-1.740;2023-09-08T05:39:36;99950.00;;;13.48;100.00
51452;BME280;37521;52.020;-1.740;2023-09-08T05:42:05;99956.16;;;13.49;100.00
51452;BME280;37521;52.020;-1.740;2023-09-08T05:44:34;99956.84;;;13.52;100.00
51452;BME280;37521;52.020;-1.740;2023-09-08T05:47:03;99967.28;;;13.55;100.00
51452;BME280;37521;52.020;-1.740;2023-09-08T05:49:31;99967.00;;;13.60;100.00
51452;BME280;37521;52.020;-1.740;2023-09-08T05:52:03;99955.19;;;13.66;100.00
51452;BME280;37521;52.020;-1.740;2023-09-08T05:54:35;99960.50;;;13.66;100.00
51452;BME280;37521;52.020;-1.740;2023-09-08T05:57:05;99963.31;;;13.62;100.00
51452;BME280;37521;52.020;-1.740;2023-09-08T05:59:33;99965.88;;;13.64;100.00
51452;BME280;37521;52.020;-1.740;2023-09-08T06:02:02;99968.44;;;13.66;100.00
51452;BME280;37521;52.020;-1.740;2023-09-08T06:04:31;99955.94;;;13.68;100.00
51452;BME280;37521;52.020;-1.740;2023-09-08T06:07:01;99962.78;;;13.72;100.00
51452;BME280;37521;52.020;-1.740;2023-09-08T06:09:32;99967.88;;;13.75;100.00
51452;BME280;37521;52.020;-1.740;2023-09-08T06:12:02;99957.00;;;13.79;100.00
51452;BME280;37521;52.020;-1.740;2023-09-08T06:14:31;99972.47;;;13.87;100.00
51452;BME280;37521;52.020;-1.740;2023-09-08T06:16:59;99975.69;;;13.92;100.00
51452;BME280;37521;52.020;-1.740;2023-09-08T06:19:28;99984.03;;;14.00;100.00
51452;BME280;37521;52.020;-1.740;2023-09-08T06:21:56;99987.28;;;14.05;100.00
51452;BME280;37521;52.020;-1.740;2023-09-08T06:24:25;99991.63;;;14.06;100.00
51452;BME280;37521;52.020;-1.740;2023-09-08T06:26:55;99988.78;;;14.09;100.00
51452;BME280;37521;52.020;-1.740;2023-09-08T06:29:25;99995.78;;;14.10;100.00
51452;BME280;37521;52.020;-1.740;2023-09-08T06:31:54;99990.41;;;14.12;100.00
51452;BME280;37521;52.020;-1.740;2023-09-08T06:34:23;99993.91;;;14.12;100.00
51452;BME280;37521;52.020;-1.740;2023-09-08T06:36:52;99992.88;;;14.15;100.00
51452;BME280;37521;52.020;-1.740;2023-09-08T06:39:21;99991.75;;;14.19;100.00
51452;BME280;37521;52.020;-1.740;2023-09-08T06:41:50;99988.88;;;14.22;100.00
51452;BME280;37521;52.020;-1.740;2023-09-08T06:44:20;99993.19;;;14.25;100.00
51452;BME280;37521;52.020;-1.740;2023-09-08T06:46:49;99998.06;;;14.31;100.00
51452;BME280;37521;52.020;-1.740;2023-09-08T06:49:18;99993.34;;;14.36;100.00
51452;BME280;37521;52.020;-1.740;2023-09-08T06:51:47;99998.38;;;14.40;100.00
51452;BME280;37521;52.020;-1.740;2023-09-08T06:54:16;100001.63;;;14.45;100.00
51452;BME280;37521;52.020;-1.740;2023-09-08T06:56:45;99995.75;;;14.55;100.00
51452;BME280;37521;52.020;-1.740;2023-09-08T06:59:14;99987.28;;;14.62;100.00
51452;BME280;37521;52.020;-1.740;2023-09-08T07:01:42;99995.63;;;14.70;100.00
51452;BME280;37521;52.020;-1.740;2023-09-08T07:04:14;99999.31;;;14.82;100.00
51452;BME280;37521;52.020;-1.740;2023-09-08T07:06:43;99997.78;;;14.92;100.00
51452;BME280;37521;52.020;-1.740;2023-09-08T07:09:14;99991.97;;;15.00;100.00
51452;BME280;37521;52.020;-1.740;2023-09-08T07:11:43;99997.63;;;15.08;100.00
51452;BME280;37521;52.020;-1.740;2023-09-08T07:14:12;99996.28;;;15.15;100.00
51452;BME280;37521;52.020;-1.740;2023-09-08T07:16:41;100002.03;;;15.22;100.00
51452;BME280;37521;52.020;-1.740;2023-09-08T07:19:09;99999.94;;;15.27;100.00
51452;BME280;37521;52.020;-1.740;2023-09-08T07:21:40;100001.41;;;15.31;100.00
51452;BME280;37521;52.020;-1.740;2023-09-08T07:24:08;100006.34;;;15.37;100.00
51452;BME280;37521;52.020;-1.740;2023-09-08T07:26:37;100006.72;;;15.45;100.00
51452;BME280;37521;52.020;-1.740;2023-09-08T07:29:05;100006.19;;;15.53;100.00
51452;BME280;37521;52.020;-1.740;2023-09-08T07:31:34;100002.16;;;15.60;100.00
51452;BME280;37521;52.020;-1.740;2023-09-08T07:34:02;100013.91;;;15.70;100.00
51452;BME280;37521;52.020;-1.740;2023-09-08T07:36:31;100008.84;;;15.80;100.00
51452;BME280;37521;52.020;-1.740;2023-09-08T07:39:01;100014.50;;;15.88;100.00
51452;BME280;37521;52.020;-1.740;2023-09-08T07:41:30;100011.31;;;15.96;100.00
51452;BME280;37521;52.020;-1.740;2023-09-08T07:43:58;100018.75;;;16.03;100.00
51452;BME280;37521;52.020;-1.740;2023-09-08T07:46:29;100018.22;;;16.11;100.00
51452;BME280;37521;52.020;-1.740;2023-09-08T07:48:58;100019.97;;;16.12;100.00
51452;BME280;37521;52.020;-1.740;2023-09-08T07:51:27;100027.59;;;16.17;100.00
51452;BME280;37521;52.020;-1.740;2023-09-08T07:53:56;100027.06;;;16.24;100.00
51452;BME280;37521;52.020;-1.740;2023-09-08T07:56:26;100017.81;;;16.30;100.00
51452;BME280;37521;52.020;-1.740;2023-09-08T07:58:56;100019.31;;;16.34;100.00
51452;BME280;37521;52.020;-1.740;2023-09-08T08:01:25;100020.91;;;16.37;100.00
51452;BME280;37521;52.020;-1.740;2023-09-08T08:03:55;100022.50;;;16.39;100.00
51452;BME280;37521;52.020;-1.740;2023-09-08T08:06:27;100016.94;;;16.42;100.00
51452;BME280;37521;52.020;-1.740;2023-09-08T08:08:56;100013.00;;;16.48;100.00
51452;BME280;37521;52.020;-1.740;2023-09-08T08:11:31;100018.03;;;16.52;100.00
51452;BME280;37521;52.020;-1.740;2023-09-08T08:14:00;100006.28;;;16.55;100.00
51452;BME280;37521;52.020;-1.740;2023-09-08T08:16:29;100005.84;;;16.61;100.00
51452;BME280;37521;52.020;-1.740;2023-09-08T08:18:58;100005.63;;;16.64;100.00
51452;BME280;37521;52.020;-1.740;2023-09-08T08:21:28;100003.91;;;16.63;100.00
51452;BME280;37521;52.020;-1.740;2023-09-08T08:23:58;99999.22;;;16.67;100.00
51452;BME280;37521;52.020;-1.740;2023-09-08T08:26:26;99997.00;;;16.73;100.00
51452;BME280;37521;52.020;-1.740;2023-09-08T08:29:01;100007.22;;;16.79;100.00
51452;BME280;37521;52.020;-1.740;2023-09-08T08:31:29;100013.72;;;16.88;100.00
51452;BME280;37521;52.020;-1.740;2023-09-08T08:33:58;100008.78;;;16.95;100.00
51452;BME280;37521;52.020;-1.740;2023-09-08T08:36:26;100016.88;;;17.06;100.00
51452;BME280;37521;52.020;-1.740;2023-09-08T08:38:56;100012.78;;;17.13;100.00
51452;BME280;37521;52.020;-1.740;2023-09-08T08:41:25;100024.69;;;17.20;100.00
51452;BME280;37521;52.020;-1.740;2023-09-08T08:43:55;100020.81;;;17.24;100.00
51452;BME280;37521;52.020;-1.740;2023-09-08T08:46:26;100037.47;;;17.28;100.00
51452;BME280;37521;52.020;-1.740;2023-09-08T08:48:56;100028.25;;;17.32;100.00
51452;BME280;37521;52.020;-1.740;2023-09-08T08:51:26;100032.09;;;17.40;100.00
51452;BME280;37521;52.020;-1.740;2023-09-08T08:53:57;100035.75;;;17.51;100.00
51452;BME280;37521;52.020;-1.740;2023-09-08T08:56:29;100033.59;;;17.56;100.00
51452;BME280;37521;52.020;-1.740;2023-09-08T08:58:58;100027.69;;;17.63;100.00
51452;BME280;37521;52.020;-1.740;2023-09-08T09:01:30;100036.47;;;17.65;100.00
51452;BME280;37521;52.020;-1.740;2023-09-08T09:04:00;100034.63;;;17.66;100.00
51452;BME280;37521;52.020;-1.740;2023-09-08T09:06:29;100030.03;;;17.68;100.00
51452;BME280;37521;52.020;-1.740;2023-09-08T09:08:59;100029.59;;;17.74;100.00
51452;BME280;37521;52.020;-1.740;2023-09-08T09:11:29;100029.34;;;17.77;100.00
51452;BME280;37521;52.020;-1.740;2023-09-08T09:13:58;100034.47;;;17.80;100.00
51452;BME280;37521;52.020;-1.740;2023-09-08T09:16:30;100039.09;;;17.89;100.00
51452;BME280;37521;52.020;-1.740;2023-09-08T09:18:59;100035.97;;;17.95;100.00
51452;BME280;37521;52.020;-1.740;2023-09-08T09:21:41;100038.38;;;17.98;100.00
51452;BME280;37521;52.020;-1.740;2023-09-08T09:24:14;100041.56;;;18.04;100.00
51452;BME280;37521;52.020;-1.740;2023-09-08T09:26:47;100036.47;;;18.12;100.00
51452;BME280;37521;52.020;-1.740;2023-09-08T09:29:20;100035.53;;;18.24;100.00
51452;BME280;37521;52.020;-1.740;2023-09-08T09:31:53;100035.78;;;18.32;100.00
51452;BME280;37521;52.020;-1.740;2023-09-08T09:34:23;100038.25;;;18.46;100.00
51452;BME280;37521;52.020;-1.740;2023-09-08T09:36:52;100033.16;;;18.66;100.00
51452;BME280;37521;52.020;-1.740;2023-09-08T09:39:22;100024.66;;;18.83;100.00
51452;BME280;37521;52.020;-1.740;2023-09-08T09:41:54;100035.84;;;18.99;100.00
51452;BME280;37521;52.020;-1.740;2023-09-08T09:44:24;100027.03;;;19.20;100.00
51452;BME280;37521;52.020;-1.740;2023-09-08T09:46:54;100028.06;;;19.40;100.00
51452;BME280;37521;52.020;-1.740;2023-09-08T09:49:22;100028.63;;;19.54;100.00
51452;BME280;37521;52.020;-1.740;2023-09-08T09:51:54;100028.47;;;19.67;100.00
51452;BME280;37521;52.020;-1.740;2023-09-08T09:54:23;100042.22;;;19.74;100.00
51452;BME280;37521;52.020;-1.740;2023-09-08T09:56:52;100039.41;;;19.75;100.00
51452;BME280;37521;52.020;-1.740;2023-09-08T09:59:21;100031.50;;;19.74;100.00
51452;BME280;37521;52.020;-1.740;2023-09-08T10:01:52;100034.88;;;19.76;100.00
51452;BME280;37521;52.020;-1.740;2023-09-08T10:04:22;100037.97;;;19.92;100.00
51452;BME280;37521;52.020;-1.740;2023-09-08T10:06:51;100046.47;;;19.97;100.00
51452;BME280;37521;52.020;-1.740;2023-09-08T10:09:19;100044.13;;;20.04;100.00
51452;BME280;37521;52.020;-1.740;2023-09-08T10:11:49;100047.59;;;20.16;100.00
51452;BME280;37521;52.020;-1.740;2023-09-08T10:14:18;100049.22;;;20.28;100.00
51452;BME280;37521;52.020;-1.740;2023-09-08T10:16:49;100041.03;;;20.50;100.00
51452;BME280;37521;52.020;-1.740;2023-09-08T10:19:21;100049.56;;;20.65;100.00
51452;BME280;37521;52.020;-1.740;2023-09-08T10:21:51;100038.59;;;20.78;100.00
51452;BME280;37521;52.020;-1.740;2023-09-08T10:24:24;100044.59;;;20.91;100.00
51452;BME280;37521;52.020;-1.740;2023-09-08T10:27:04;100055.25;;;21.12;100.00
51452;BME280;37521;52.020;-1.740;2023-09-08T10:29:36;100057.75;;;21.34;100.00
51452;BME280;37521;52.020;-1.740;2023-09-08T10:32:06;100052.09;;;21.37;100.00
51452;BME280;37521;52.020;-1.740;2023-09-08T10:34:37;100058.34;;;21.47;100.00
51452;BME280;37521;52.020;-1.740;2023-09-08T10:37:19;100048.03;;;21.62;100.00
51452;BME280;37521;52.020;-1.740;2023-09-08T10:39:47;100044.78;;;21.88;100.00
51452;BME280;37521;52.020;-1.740;2023-09-08T10:42:23;100042.22;;;21.96;100.00
51452;BME280;37521;52.020;-1.740;2023-09-08T10:44:58;100045.31;;;22.01;100.00
51452;BME280;37521;52.020;-1.740;2023-09-08T10:47:32;100039.94;;;22.01;100.00
51452;BME280;37521;52.020;-1.740;2023-09-08T10:50:06;100048.56;;;22.04;100.00
51452;BME280;37521;52.020;-1.740;2023-09-08T10:52:35;100049.88;;;22.10;100.00
51452;BME280;37521;52.020;-1.740;2023-09-08T10:55:04;100052.69;;;22.09;100.00
51452;BME280;37521;52.020;-1.740;2023-09-08T10:57:34;100039.09;;;22.10;100.00
51452;BME280;37521;52.020;-1.740;2023-09-08T11:00:03;100041.44;;;22.33;100.00
51452;BME280;37521;52.020;-1.740;2023-09-08T11:02:40;100024.50;;;22.60;100.00
51452;BME280;37521;52.020;-1.740;2023-09-08T11:05:13;100032.06;;;22.83;100.00
51452;BME280;37521;52.020;-1.740;2023-09-08T11:07:44;100020.75;;;22.90;100.00
51452;BME280;37521;52.020;-1.740;2023-09-08T11:10:12;100021.22;;;23.03;100.00
51452;BME280;37521;52.020;-1.740;2023-09-08T11:12:41;100020.19;;;23.31;100.00
51452;BME280;37521;52.020;-1.740;2023-09-08T11:15:10;100015.88;;;23.38;100.00
51452;BME280;37521;52.020;-1.740;2023-09-08T11:17:38;100008.59;;;23.49;100.00
51452;BME280;37521;52.020;-1.740;2023-09-08T11:20:11;100013.97;;;23.49;100.00
51452;BME280;37521;52.020;-1.740;2023-09-08T11:22:39;100014.81;;;23.31;100.00
51452;BME280;37521;52.020;-1.740;2023-09-08T11:25:09;100010.22;;;23.42;100.00
51452;BME280;37521;52.020;-1.740;2023-09-08T11:27:39;100006.75;;;23.49;100.00
51452;BME280;37521;52.020;-1.740;2023-09-08T11:30:08;100006.06;;;23.65;100.00
51452;BME280;37521;52.020;-1.740;2023-09-08T11:32:37;100017.69;;;23.83;100.00
51452;BME280;37521;52.020;-1.740;2023-09-08T11:35:07;100008.59;;;23.84;100.00
51452;BME280;37521;52.020;-1.740;2023-09-08T11:37:40;100019.31;;;23.76;100.00
51452;BME280;37521;52.020;-1.740;2023-09-08T11:40:09;100017.69;;;23.65;100.00
51452;BME280;37521;52.020;-1.740;2023-09-08T11:42:40;100017.00;;;23.81;100.00
51452;BME280;37521;52.020;-1.740;2023-09-08T11:45:12;100015.72;;;23.93;100.00
51452;BME280;37521;52.020;-1.740;2023-09-08T11:47:41;100014.19;;;24.09;100.00
51452;BME280;37521;52.020;-1.740;2023-09-08T11:50:11;100012.31;;;24.09;100.00
51452;BME280;37521;52.020;-1.740;2023-09-08T11:52:46;100012.56;;;23.98;100.00
51452;BME280;37521;52.020;-1.740;2023-09-08T11:55:15;100014.75;;;23.95;100.00
51452;BME280;37521;52.020;-1.740;2023-09-08T11:57:47;100014.44;;;23.80;100.00
51452;BME280;37521;52.020;-1.740;2023-09-08T12:00:18;100014.66;;;23.86;100.00
51452;BME280;37521;52.020;-1.740;2023-09-08T12:02:48;100005.59;;;23.87;100.00
51452;BME280;37521;52.020;-1.740;2023-09-08T12:05:24;99999.94;;;23.99;100.00
51452;BME280;37521;52.020;-1.740;2023-09-08T12:07:55;99998.63;;;24.03;100.00
51452;BME280;37521;52.020;-1.740;2023-09-08T12:10:26;100003.59;;;24.15;100.00
51452;BME280;37521;52.020;-1.740;2023-09-08T12:12:56;99997.69;;;24.38;100.00
51452;BME280;37521;52.020;-1.740;2023-09-08T12:15:31;99988.19;;;24.60;100.00
51452;BME280;37521;52.020;-1.740;2023-09-08T12:18:01;99990.78;;;24.69;100.00
51452;BME280;37521;52.020;-1.740;2023-09-08T12:20:31;99985.38;;;24.69;100.00
51452;BME280;37521;52.020;-1.740;2023-09-08T12:23:02;99977.38;;;24.60;100.00
51452;BME280;37521;52.020;-1.740;2023-09-08T12:25:32;99975.50;;;24.52;100.00
51452;BME280;37521;52.020;-1.740;2023-09-08T12:28:04;99976.03;;;24.56;100.00
51452;BME280;37521;52.020;-1.740;2023-09-08T12:30:33;99985.56;;;24.76;100.00
51452;BME280;37521;52.020;-1.740;2023-09-08T12:33:02;99977.22;;;25.04;100.00
51452;BME280;37521;52.020;-1.740;2023-09-08T12:35:30;99970.72;;;25.22;100.00
51452;BME280;37521;52.020;-1.740;2023-09-08T12:38:01;99978.50;;;25.42;100.00
51452;BME280;37521;52.020;-1.740;2023-09-08T12:40:33;99966.63;;;25.26;100.00
51452;BME280;37521;52.020;-1.740;2023-09-08T12:43:02;99975.09;;;25.23;100.00
51452;BME280;37521;52.020;-1.740;2023-09-08T12:45:51;99974.25;;;25.23;100.00
51452;BME280;37521;52.020;-1.740;2023-09-08T12:48:19;99976.59;;;25.26;100.00